createdAt,value
2023-05-19T00:01:56.962Z,13.47
2023-05-19T00:04:31.433Z,13.44
2023-05-19T00:07:05.648Z,13.41
2023-05-19T00:09:38.660Z,13.38
2023-05-19T00:12:12.237Z,13.36
2023-05-19T00:14:45.154Z,13.35
2023-05-19T00:17:18.121Z,13.33
2023-05-19T00:19:52.574Z,13.30
2023-05-19T00:22:25.959Z,13.29
2023-05-19T00:24:58.666Z,13.26
2023-05-19T00:27:31.374Z,13.23
2023-05-19T00:30:04.157Z,13.21
2023-05-19T00:32:36.960Z,13.18
2023-05-19T00:35:11.519Z,13.14
2023-05-19T00:37:44.332Z,13.13
2023-05-19T00:40:17.115Z,13.12
2023-05-19T00:42:49.794Z,13.11
2023-05-19T00:45:22.999Z,13.09
2023-05-19T00:47:55.949Z,13.08
2023-05-19T00:50:30.321Z,13.04
2023-05-19T00:53:03.417Z,13.02
2023-05-19T00:55:37.851Z,12.99
2023-05-19T00:58:11.100Z,12.98
2023-05-19T01:00:44.393Z,12.95
2023-05-19T01:03:20.759Z,12.93
2023-05-19T01:05:55.151Z,12.90
2023-05-19T01:08:28.191Z,12.89
2023-05-19T01:11:00.962Z,12.86
2023-05-19T01:13:34.389Z,12.87
2023-05-19T01:16:12.483Z,12.88
2023-05-19T01:18:47.880Z,12.89
2023-05-19T01:21:37.405Z,12.89
2023-05-19T01:24:24.250Z,12.88
2023-05-19T01:27:11.094Z,12.89
2023-05-19T01:29:54.357Z,12.92
2023-05-19T01:32:29.968Z,12.92
2023-05-19T01:35:03.673Z,12.91
2023-05-19T01:37:38.373Z,12.95
2023-05-19T01:40:11.395Z,12.96
2023-05-19T01:42:45.544Z,12.96
2023-05-19T01:45:18.871Z,12.96
2023-05-19T01:47:54.369Z,12.95
2023-05-19T01:50:27.262Z,12.93
2023-05-19T01:53:00.694Z,12.95
2023-05-19T01:55:33.566Z,12.96
2023-05-19T01:58:11.662Z,12.98
2023-05-19T02:00:51.170Z,12.97
2023-05-19T02:03:34.088Z,12.97
2023-05-19T02:06:13.908Z,12.97
2023-05-19T02:08:51.682Z,12.93
2023-05-19T02:11:27.999Z,12.87
2023-05-19T02:14:02.415Z,12.86
2023-05-19T02:16:36.140Z,12.84
2023-05-19T02:19:20.915Z,12.84
2023-05-19T02:21:53.798Z,12.84
2023-05-19T02:24:27.747Z,12.84
2023-05-19T02:27:00.592Z,12.83
2023-05-19T02:29:33.292Z,12.82
2023-05-19T02:32:07.164Z,12.81
2023-05-19T02:34:42.298Z,12.79
2023-05-19T02:37:15.472Z,12.78
2023-05-19T02:39:48.137Z,12.78
2023-05-19T02:42:20.812Z,12.77
2023-05-19T02:44:55.342Z,12.76
2023-05-19T02:47:28.089Z,12.76
2023-05-19T02:50:02.130Z,12.76
2023-05-19T02:52:35.984Z,12.76
2023-05-19T02:55:09.105Z,12.76
2023-05-19T02:57:42.391Z,12.75
2023-05-19T03:00:15.963Z,12.72
2023-05-19T03:02:50.195Z,12.73
2023-05-19T03:05:24.685Z,12.72
2023-05-19T03:07:57.375Z,12.72
2023-05-19T03:10:30.160Z,12.71
2023-05-19T03:13:03.049Z,12.74
2023-05-19T03:15:36.625Z,12.74
2023-05-19T03:18:09.806Z,12.75
2023-05-19T03:20:44.727Z,12.75
2023-05-19T03:23:17.430Z,12.72
2023-05-19T03:25:50.912Z,12.71
2023-05-19T03:28:24.334Z,12.72
2023-05-19T03:30:57.012Z,12.71
2023-05-19T03:33:33.730Z,12.68
2023-05-19T03:36:08.731Z,12.69
2023-05-19T03:38:44.453Z,12.69
2023-05-19T03:41:17.151Z,12.71
2023-05-19T03:43:49.984Z,12.70
2023-05-19T03:46:22.833Z,12.70
2023-05-19T03:49:04.429Z,12.70
2023-05-19T03:52:07.447Z,12.70
2023-05-19T03:54:54.818Z,12.71
2023-05-19T03:57:27.700Z,12.71
2023-05-19T04:00:00.409Z,12.72
2023-05-19T04:02:33.185Z,12.74
2023-05-19T04:05:06.281Z,12.72
2023-05-19T04:07:40.393Z,12.74
2023-05-19T04:10:13.612Z,12.75
2023-05-19T04:12:48.779Z,12.75
2023-05-19T04:15:21.932Z,12.75
2023-05-19T04:17:54.686Z,12.75
2023-05-19T04:20:27.437Z,12.75
2023-05-19T04:23:01.487Z,12.77
2023-05-19T04:25:36.075Z,12.75
2023-05-19T04:28:08.963Z,12.74
2023-05-19T04:30:46.708Z,12.75
2023-05-19T04:33:20.134Z,12.77
2023-05-19T04:35:53.032Z,12.80
2023-05-19T04:38:29.987Z,12.84
2023-05-19T04:41:02.870Z,12.85
2023-05-19T04:43:36.544Z,12.88
2023-05-19T04:46:11.615Z,12.90
2023-05-19T04:48:46.652Z,12.94
2023-05-19T04:51:19.898Z,12.99
2023-05-19T04:53:54.244Z,13.03
2023-05-19T04:56:27.454Z,13.00
2023-05-19T04:59:00.710Z,13.00
2023-05-19T05:01:34.007Z,13.01
2023-05-19T05:04:07.519Z,13.07
2023-05-19T05:06:42.475Z,13.13
2023-05-19T05:09:16.829Z,13.19
2023-05-19T05:11:49.971Z,13.23
2023-05-19T05:14:23.183Z,13.30
2023-05-19T05:16:56.892Z,13.35
2023-05-19T05:19:31.141Z,13.41
2023-05-19T05:22:04.509Z,13.49
2023-05-19T05:24:39.109Z,13.57
2023-05-19T05:27:11.914Z,13.61
2023-05-19T05:29:45.593Z,13.66
2023-05-19T05:32:18.833Z,13.70
2023-05-19T05:34:51.998Z,13.73
2023-05-19T05:37:24.711Z,13.79
2023-05-19T05:39:59.368Z,13.86
2023-05-19T05:42:32.187Z,13.88
2023-05-19T05:45:05.230Z,13.91
2023-05-19T05:47:39.740Z,13.95
2023-05-19T05:50:14.265Z,14.03
2023-05-19T05:52:48.292Z,14.08
2023-05-19T05:55:25.044Z,14.13
2023-05-19T05:57:58.698Z,14.21
2023-05-19T06:00:32.063Z,14.31
2023-05-19T06:03:05.903Z,14.42
2023-05-19T06:05:39.372Z,14.50
2023-05-19T06:08:12.370Z,14.59
2023-05-19T06:10:51.997Z,14.59
2023-05-19T06:13:26.205Z,14.57
2023-05-19T06:16:01.232Z,14.61
2023-05-19T06:18:43.696Z,14.70
2023-05-19T06:21:17.669Z,14.77
2023-05-19T06:23:50.405Z,14.78
2023-05-19T06:26:25.429Z,14.81
2023-05-19T06:28:58.573Z,14.81
2023-05-19T06:31:31.471Z,14.79
2023-05-19T06:34:12.517Z,14.74
2023-05-19T06:36:45.411Z,14.67
2023-05-19T06:39:19.279Z,14.63
2023-05-19T06:41:53.342Z,14.61
2023-05-19T06:44:51.837Z,14.63
2023-05-19T06:47:28.207Z,14.67
2023-05-19T06:50:01.049Z,14.71
2023-05-19T06:52:37.246Z,14.77
2023-05-19T06:55:10.148Z,14.82
2023-05-19T06:57:45.840Z,14.79
2023-05-19T07:00:31.779Z,14.77
2023-05-19T07:03:04.882Z,14.75
2023-05-19T07:05:37.805Z,14.76
2023-05-19T07:08:11.096Z,14.80
2023-05-19T07:10:43.919Z,14.85
2023-05-19T07:13:20.633Z,14.91
2023-05-19T07:15:55.979Z,14.92
2023-05-19T07:18:31.809Z,14.92
2023-05-19T07:21:04.860Z,14.96
2023-05-19T07:23:37.655Z,15.04
2023-05-19T07:26:10.457Z,15.08
2023-05-19T07:28:44.556Z,15.09
2023-05-19T07:31:17.634Z,15.10
2023-05-19T07:33:52.282Z,15.09
2023-05-19T07:36:27.255Z,15.05
2023-05-19T07:39:00.136Z,15.01
2023-05-19T07:41:34.449Z,14.95
2023-05-19T07:44:10.908Z,14.89
2023-05-19T07:46:43.727Z,14.83
2023-05-19T07:49:16.497Z,14.78
2023-05-19T07:51:49.237Z,14.71
2023-05-19T07:54:22.019Z,14.66
2023-05-19T07:56:54.681Z,14.65
2023-05-19T07:59:28.757Z,14.64
2023-05-19T08:02:01.669Z,14.64
2023-05-19T08:04:34.452Z,14.67
2023-05-19T08:07:07.155Z,14.64
2023-05-19T08:09:39.909Z,14.58
2023-05-19T08:12:12.635Z,14.53
2023-05-19T08:14:46.723Z,14.51
2023-05-19T08:17:21.469Z,14.48
2023-05-19T08:19:54.534Z,14.50
2023-05-19T08:22:27.303Z,14.53
2023-05-19T08:25:00.068Z,14.58
2023-05-19T08:27:35.653Z,14.66
2023-05-19T08:30:10.655Z,14.73
2023-05-19T08:32:43.392Z,14.78
2023-05-19T08:35:16.349Z,14.84
2023-05-19T08:37:49.094Z,14.86
2023-05-19T08:40:22.115Z,14.91
2023-05-19T08:42:55.128Z,14.98
2023-05-19T08:45:29.946Z,15.03
2023-05-19T08:48:04.314Z,15.07
2023-05-19T08:50:40.342Z,15.11
2023-05-19T08:53:25.026Z,15.14
2023-05-19T08:56:10.605Z,15.14
2023-05-19T08:58:44.292Z,15.15
2023-05-19T09:01:18.979Z,15.19
2023-05-19T09:03:53.010Z,15.22
2023-05-19T09:06:26.492Z,15.28
2023-05-19T09:08:59.414Z,15.32
2023-05-19T09:11:32.433Z,15.36
2023-05-19T09:14:05.369Z,15.34
2023-05-19T09:16:40.162Z,15.34
2023-05-19T09:19:15.442Z,15.33
2023-05-19T09:21:58.682Z,15.35
2023-05-19T09:24:31.554Z,15.30
2023-05-19T09:27:04.394Z,15.29
2023-05-19T09:29:37.176Z,15.28
2023-05-19T09:32:11.342Z,15.22
2023-05-19T09:34:44.044Z,15.19
2023-05-19T09:37:16.777Z,15.17
2023-05-19T09:39:52.115Z,15.14
2023-05-19T09:42:29.786Z,15.13
2023-05-19T09:45:05.924Z,15.13
2023-05-19T09:47:41.305Z,15.13
2023-05-19T09:50:14.255Z,15.12
2023-05-19T09:52:47.571Z,15.11
2023-05-19T09:55:23.226Z,15.11
2023-05-19T09:57:56.644Z,15.11
2023-05-19T10:00:31.178Z,15.11
2023-05-19T10:03:06.280Z,15.13
2023-05-19T10:05:39.597Z,15.12
2023-05-19T10:08:13.181Z,15.10
2023-05-19T10:10:47.266Z,15.08
2023-05-19T10:13:20.637Z,15.04
2023-05-19T10:15:58.955Z,15.03
2023-05-19T10:18:34.487Z,15.02
2023-05-19T10:21:08.869Z,15.00
2023-05-19T10:23:41.921Z,14.99
2023-05-19T10:26:15.123Z,15.00
2023-05-19T10:28:49.169Z,15.04
2023-05-19T10:31:22.775Z,15.10
2023-05-19T10:34:07.158Z,15.16
2023-05-19T10:36:47.351Z,15.22
2023-05-19T10:39:29.323Z,15.28
2023-05-19T10:42:05.519Z,15.35
2023-05-19T10:44:47.484Z,15.39
2023-05-19T10:47:24.103Z,15.41
2023-05-19T10:50:01.341Z,15.41
2023-05-19T10:52:37.965Z,15.40
2023-05-19T10:55:17.846Z,15.39
2023-05-19T10:57:56.878Z,15.39
2023-05-19T11:00:31.320Z,15.41
2023-05-19T11:03:13.942Z,15.38
2023-05-19T11:05:50.965Z,15.37
2023-05-19T11:08:33.080Z,15.35
2023-05-19T11:11:13.851Z,15.33
2023-05-19T11:13:48.360Z,15.28
2023-05-19T11:16:27.513Z,15.23
2023-05-19T11:19:00.597Z,15.21
2023-05-19T11:21:44.647Z,15.22
2023-05-19T11:24:32.256Z,15.24
2023-05-19T11:27:27.477Z,15.30
2023-05-19T11:30:00.675Z,15.33
2023-05-19T11:32:34.962Z,15.35
2023-05-19T11:35:08.150Z,15.40
2023-05-19T11:37:43.493Z,15.48
2023-05-19T11:40:16.526Z,15.58
2023-05-19T11:42:49.234Z,15.67
2023-05-19T11:45:25.686Z,15.76
2023-05-19T11:48:02.500Z,15.82
2023-05-19T11:50:38.336Z,15.85
2023-05-19T11:53:14.667Z,15.89
2023-05-19T11:55:48.397Z,15.92
2023-05-19T11:58:26.903Z,15.93
2023-05-19T12:01:04.564Z,15.95
2023-05-19T12:03:37.500Z,15.93
2023-05-19T12:06:10.371Z,15.90
2023-05-19T12:08:44.490Z,15.88
2023-05-19T12:11:18.202Z,15.84
2023-05-19T12:13:54.686Z,15.77
2023-05-19T12:16:33.786Z,15.75
2023-05-19T12:19:06.758Z,15.75
2023-05-19T12:21:39.589Z,15.76
2023-05-19T12:24:13.868Z,15.79
2023-05-19T12:26:47.214Z,15.84
2023-05-19T12:29:19.916Z,15.89
2023-05-19T12:31:52.733Z,15.95
2023-05-19T12:34:25.693Z,16.03
2023-05-19T12:36:58.529Z,16.09
2023-05-19T12:39:32.637Z,16.13
2023-05-19T12:42:08.509Z,16.18
2023-05-19T12:44:46.644Z,16.23
2023-05-19T12:47:21.108Z,16.19
2023-05-19T12:49:57.974Z,16.15
2023-05-19T12:52:31.252Z,16.15
2023-05-19T12:55:06.952Z,16.13
2023-05-19T12:57:40.694Z,16.11
2023-05-19T13:00:17.970Z,16.10
2023-05-19T13:02:58.315Z,16.06
2023-05-19T13:05:33.691Z,16.01
2023-05-19T13:08:09.700Z,15.91
2023-05-19T13:10:44.724Z,15.85
2023-05-19T13:13:17.625Z,15.84
2023-05-19T13:15:50.382Z,15.85
2023-05-19T13:18:23.175Z,15.84
2023-05-19T13:20:56.103Z,15.81
2023-05-19T13:23:28.898Z,15.79
2023-05-19T13:26:04.990Z,15.85
2023-05-19T13:28:37.820Z,15.89
2023-05-19T13:31:10.633Z,15.95
2023-05-19T13:33:43.439Z,15.98
2023-05-19T13:36:16.249Z,15.97
2023-05-19T13:38:49.037Z,15.96
2023-05-19T13:41:26.127Z,15.97
2023-05-19T13:43:59.401Z,15.99
2023-05-19T13:46:43.958Z,15.97
2023-05-19T13:49:19.594Z,15.99
2023-05-19T13:51:52.537Z,16.01
2023-05-19T13:54:25.282Z,16.03
2023-05-19T13:56:59.384Z,16.04
2023-05-19T13:59:32.163Z,16.06
2023-05-19T14:02:05.529Z,16.07
2023-05-19T14:04:38.985Z,16.07
2023-05-19T14:07:11.740Z,16.04
2023-05-19T14:09:44.435Z,16.00
2023-05-19T14:12:19.332Z,15.94
2023-05-19T14:14:52.968Z,15.88
2023-05-19T14:17:28.118Z,15.85
2023-05-19T14:20:01.244Z,15.85
2023-05-19T14:22:34.039Z,15.82
2023-05-19T14:25:07.198Z,15.79
2023-05-19T14:27:41.422Z,15.83
2023-05-19T14:30:14.389Z,15.85
2023-05-19T14:32:47.137Z,15.88
2023-05-19T14:35:19.891Z,15.92
2023-05-19T14:37:52.692Z,15.96
2023-05-19T14:40:25.396Z,15.97
2023-05-19T14:42:59.467Z,15.97
2023-05-19T14:45:32.202Z,15.98
2023-05-19T14:48:05.086Z,16.00
2023-05-19T14:50:37.999Z,16.01
2023-05-19T14:53:10.781Z,16.02
2023-05-19T14:55:43.637Z,15.98
2023-05-19T14:58:28.262Z,15.93
2023-05-19T15:01:01.791Z,15.90
2023-05-19T15:03:34.535Z,15.88
2023-05-19T15:06:09.272Z,15.85
2023-05-19T15:08:42.030Z,15.85
2023-05-19T15:11:14.761Z,15.85
2023-05-19T15:13:48.853Z,15.87
2023-05-19T15:16:21.565Z,15.88
2023-05-19T15:18:54.441Z,15.89
2023-05-19T15:21:27.266Z,15.90
2023-05-19T15:23:59.939Z,15.94
2023-05-19T15:26:32.755Z,15.94
2023-05-19T15:29:07.042Z,15.93
2023-05-19T15:31:39.732Z,15.95
2023-05-19T15:34:12.477Z,15.97
2023-05-19T15:36:45.192Z,16.00
2023-05-19T15:39:17.942Z,16.02
2023-05-19T15:41:51.194Z,16.03
2023-05-19T15:44:26.599Z,16.02
2023-05-19T15:47:00.981Z,15.98
2023-05-19T15:49:33.660Z,15.93
2023-05-19T15:52:06.649Z,15.89
2023-05-19T15:54:42.164Z,15.84
2023-05-19T15:57:14.890Z,15.77
2023-05-19T15:59:48.955Z,15.75
2023-05-19T16:02:22.304Z,15.71
2023-05-19T16:04:54.971Z,15.68
2023-05-19T16:07:27.844Z,15.70
2023-05-19T16:10:00.587Z,15.72
2023-05-19T16:12:33.759Z,15.75
2023-05-19T16:15:08.570Z,15.76
2023-05-19T16:17:41.411Z,15.78
2023-05-19T16:20:14.306Z,15.77
2023-05-19T16:22:47.045Z,15.77
2023-05-19T16:25:20.136Z,15.78
2023-05-19T16:27:52.790Z,15.77
2023-05-19T16:30:28.038Z,15.79
2023-05-19T16:33:00.880Z,15.78
2023-05-19T16:35:33.762Z,15.80
2023-05-19T16:38:06.456Z,15.79
2023-05-19T16:40:39.203Z,15.78
2023-05-19T16:43:11.958Z,15.76
2023-05-19T16:45:46.128Z,15.73
2023-05-19T16:48:18.953Z,15.72
2023-05-19T16:50:51.734Z,15.71
2023-05-19T16:53:24.554Z,15.69
2023-05-19T16:55:59.060Z,15.68
2023-05-19T16:58:31.855Z,15.67
2023-05-19T17:01:06.192Z,15.64
2023-05-19T17:03:38.978Z,15.61
2023-05-19T17:06:11.751Z,15.57
2023-05-19T17:08:44.470Z,15.53
2023-05-19T17:11:17.196Z,15.52
2023-05-19T17:13:50.087Z,15.50
2023-05-19T17:16:24.584Z,15.45
2023-05-19T17:18:57.433Z,15.44
2023-05-19T17:21:30.490Z,15.42
2023-05-19T17:24:03.381Z,15.42
2023-05-19T17:26:36.092Z,15.41
2023-05-19T17:29:09.343Z,15.40
2023-05-19T17:31:43.928Z,15.37
2023-05-19T17:34:16.858Z,15.36
2023-05-19T17:36:50.631Z,15.35
2023-05-19T17:39:23.642Z,15.34
2023-05-19T17:41:56.445Z,15.33
2023-05-19T17:44:29.145Z,15.31
2023-05-19T17:47:03.574Z,15.30
2023-05-19T17:49:36.302Z,15.31
2023-05-19T17:52:09.618Z,15.30
2023-05-19T17:54:42.510Z,15.28
2023-05-19T17:57:16.928Z,15.26
2023-05-19T17:59:49.895Z,15.26
2023-05-19T18:02:25.424Z,15.25
2023-05-19T18:05:01.891Z,15.24
2023-05-19T18:07:38.842Z,15.23
2023-05-19T18:10:12.434Z,15.21
2023-05-19T18:12:45.129Z,15.19
2023-05-19T18:15:19.834Z,15.18
2023-05-19T18:17:54.023Z,15.16
2023-05-19T18:20:26.804Z,15.16
2023-05-19T18:22:59.614Z,15.14
2023-05-19T18:25:32.459Z,15.14
2023-05-19T18:28:05.327Z,15.12
2023-05-19T18:30:38.048Z,15.11
2023-05-19T18:33:12.527Z,15.08
2023-05-19T18:35:45.314Z,15.06
2023-05-19T18:38:18.276Z,15.04
2023-05-19T18:40:50.966Z,15.03
2023-05-19T18:43:23.758Z,15.02
2023-05-19T18:45:56.884Z,15.01
2023-05-19T18:48:32.075Z,15.00
2023-05-19T18:51:05.022Z,15.00
2023-05-19T18:53:38.164Z,14.98
2023-05-19T18:56:11.976Z,14.99
2023-05-19T18:58:44.715Z,15.00
2023-05-19T19:01:17.506Z,14.99
2023-05-19T19:03:51.805Z,14.98
2023-05-19T19:06:24.504Z,14.98
2023-05-19T19:08:57.353Z,14.96
2023-05-19T19:11:30.113Z,14.96
2023-05-19T19:14:02.921Z,14.93
2023-05-19T19:16:35.778Z,14.92
2023-05-19T19:19:10.177Z,14.91
2023-05-19T19:21:43.179Z,14.91
2023-05-19T19:24:16.096Z,14.91
2023-05-19T19:26:48.769Z,14.91
2023-05-19T19:29:21.958Z,14.91
2023-05-19T19:31:54.950Z,14.91
2023-05-19T19:34:29.082Z,14.89
2023-05-19T19:37:01.865Z,14.90
2023-05-19T19:39:34.791Z,14.91
2023-05-19T19:42:07.742Z,14.90
2023-05-19T19:44:40.512Z,14.89
2023-05-19T19:47:13.280Z,14.89
2023-05-19T19:49:49.114Z,14.88
2023-05-19T19:52:21.805Z,14.88
2023-05-19T19:54:54.577Z,14.86
2023-05-19T19:57:29.169Z,14.86
2023-05-19T20:00:07.798Z,14.87
2023-05-19T20:02:55.358Z,14.84
2023-05-19T20:05:34.920Z,14.83
2023-05-19T20:08:07.819Z,14.81
2023-05-19T20:10:40.519Z,14.80
2023-05-19T20:13:13.400Z,14.79
2023-05-19T20:15:46.894Z,14.77
2023-05-19T20:18:19.693Z,14.77
2023-05-19T20:20:53.942Z,14.77
2023-05-19T20:23:26.654Z,14.76
2023-05-19T20:26:12.054Z,14.77
2023-05-19T20:28:45.901Z,14.76
2023-05-19T20:31:18.601Z,14.75
2023-05-19T20:33:51.400Z,14.76
2023-05-19T20:36:25.842Z,14.76
2023-05-19T20:38:58.581Z,14.76
2023-05-19T20:41:31.586Z,14.76
2023-05-19T20:44:04.488Z,14.75
2023-05-19T20:46:37.238Z,14.75
2023-05-19T20:49:10.036Z,14.76
2023-05-19T20:51:44.130Z,14.75
2023-05-19T20:54:16.960Z,14.76
2023-05-19T20:56:49.826Z,14.74
2023-05-19T20:59:24.269Z,14.74
2023-05-19T21:01:57.238Z,14.73
2023-05-19T21:04:30.180Z,14.74
2023-05-19T21:07:04.586Z,14.75
2023-05-19T21:09:37.343Z,14.75
2023-05-19T21:12:10.167Z,14.75
2023-05-19T21:14:42.910Z,14.74
2023-05-19T21:17:18.822Z,14.74
2023-05-19T21:19:56.361Z,14.74
2023-05-19T21:22:30.469Z,14.74
2023-05-19T21:25:03.542Z,14.73
2023-05-19T21:27:36.588Z,14.71
2023-05-19T21:30:09.825Z,14.73
2023-05-19T21:32:42.590Z,14.73
2023-05-19T21:35:15.357Z,14.74
2023-05-19T21:37:49.502Z,14.74
2023-05-19T21:40:22.236Z,14.73
2023-05-19T21:42:54.946Z,14.73
2023-05-19T21:45:27.677Z,14.74
2023-05-19T21:48:00.458Z,14.73
2023-05-19T21:50:36.611Z,14.73
2023-05-19T21:53:10.769Z,14.72
2023-05-19T21:55:44.378Z,14.74
2023-05-19T21:58:17.229Z,14.76
2023-05-19T22:00:50.765Z,14.77
2023-05-19T22:03:23.721Z,14.78
2023-05-19T22:05:56.788Z,14.80
2023-05-19T22:08:30.905Z,14.79
2023-05-19T22:11:03.664Z,14.81
2023-05-19T22:13:37.521Z,14.80
2023-05-19T22:16:10.256Z,14.77
2023-05-19T22:18:43.332Z,14.77
2023-05-19T22:21:16.049Z,14.79
2023-05-19T22:23:50.101Z,14.78
2023-05-19T22:26:23.008Z,14.78
2023-05-19T22:28:56.069Z,14.79
2023-05-19T22:31:29.759Z,14.79
2023-05-19T22:34:02.434Z,14.79
2023-05-19T22:36:35.166Z,14.79
2023-05-19T22:39:09.255Z,14.78
2023-05-19T22:41:42.069Z,14.77
2023-05-19T22:44:16.431Z,14.78
2023-05-19T22:46:49.332Z,14.80
2023-05-19T22:49:22.887Z,14.82
2023-05-19T22:51:55.625Z,14.82
2023-05-19T22:54:29.681Z,14.82
2023-05-19T22:57:03.361Z,14.79
2023-05-19T22:59:38.229Z,14.77
2023-05-19T23:02:10.921Z,14.76
2023-05-19T23:04:43.648Z,14.74
2023-05-19T23:07:16.312Z,14.75
2023-05-19T23:09:50.493Z,14.76
2023-05-19T23:12:23.292Z,14.74
2023-05-19T23:14:56.022Z,14.75
2023-05-19T23:17:28.787Z,14.75
2023-05-19T23:20:01.477Z,14.74
2023-05-19T23:22:34.132Z,14.74
2023-05-19T23:25:08.765Z,14.73
2023-05-19T23:27:41.728Z,14.72
2023-05-19T23:30:14.424Z,14.71
2023-05-19T23:32:47.321Z,14.71
2023-05-19T23:35:20.610Z,14.70
2023-05-19T23:37:54.034Z,14.70
2023-05-19T23:40:28.155Z,14.70
2023-05-19T23:43:00.827Z,14.71
2023-05-19T23:45:33.769Z,14.68
2023-05-19T23:48:08.883Z,14.67
2023-05-19T23:50:41.830Z,14.68
2023-05-19T23:53:14.600Z,14.65
2023-05-19T23:55:48.671Z,14.65
2023-05-19T23:58:23.297Z,14.65
